Time;durP1;ratioP1;P1;durP2;ratioP2;P2;SDS_P1;SDS_P2;PMS_P1;PMS_P2;Temp;Humidity;BMP_temperature;BMP_pressure;BME280_temperature;BME280_humidity;BME280_pressure;Samples;Min_cycle;Max_cycle;Signal;HPM_P1;HPM_P2
2022/11/08 00:03:48;;;;;;;6.93;2.90;;;6.60;85.00;;;;;;5039790;28;20477;-61
2022/11/08 00:14:26;;;;;;;4.73;2.80;;;6.50;85.10;;;;;;5021855;28;20425;-61
2022/11/08 00:16:52;;;;;;;5.60;3.37;;;6.50;85.00;;;;;;5003308;28;20431;-61
2022/11/08 00:19:18;;;;;;;4.10;2.90;;;6.50;85.00;;;;;;5037820;28;20202;-61
2022/11/08 00:21:43;;;;;;;4.20;3.50;;;6.50;85.00;;;;;;5054633;28;20196;-61
2022/11/08 00:24:09;;;;;;;4.60;2.73;;;6.50;85.00;;;;;;5035874;28;20196;-61
2022/11/08 00:26:35;;;;;;;4.30;2.83;;;6.40;84.80;;;;;;5014387;28;20223;-61
2022/11/08 00:29:00;;;;;;;4.60;3.30;;;6.40;84.80;;;;;;5012013;28;20207;-61
2022/11/08 00:31:26;;;;;;;3.63;3.10;;;6.40;84.60;;;;;;5037904;28;20199;-61
2022/11/08 00:33:51;;;;;;;3.70;2.80;;;6.40;84.60;;;;;;5004279;28;20215;-61
2022/11/08 00:36:17;;;;;;;3.00;2.53;;;6.40;84.60;;;;;;5038850;28;20214;-61
2022/11/08 00:38:43;;;;;;;4.87;3.03;;;6.40;84.60;;;;;;5037236;28;20222;-61
2022/11/08 00:41:10;;;;;;;4.70;3.13;;;6.40;84.60;;;;;;5013655;28;20658;-61
2022/11/08 00:43:35;;;;;;;4.17;2.43;;;6.40;84.90;;;;;;5001604;28;20197;-61
2022/11/08 00:46:01;;;;;;;4.63;3.30;;;6.30;84.40;;;;;;4982406;28;20439;-61
2022/11/08 00:48:27;;;;;;;8.00;3.10;;;6.30;85.00;;;;;;4999519;28;20646;-61
2022/11/08 00:50:52;;;;;;;3.23;2.90;;;6.30;85.30;;;;;;5044028;28;20202;-61
2022/11/08 00:53:18;;;;;;;3.77;2.50;;;6.30;85.00;;;;;;5010097;28;20302;-61
2022/11/08 00:55:43;;;;;;;2.40;2.20;;;6.30;84.90;;;;;;5062412;28;20219;-61
2022/11/08 00:58:09;;;;;;;3.67;2.30;;;6.30;84.90;;;;;;5049234;28;20214;-61
2022/11/08 01:00:35;;;;;;;2.83;2.37;;;6.30;84.70;;;;;;4979415;28;20196;-61
2022/11/08 01:03:19;;;;;;;3.60;2.77;;;6.20;85.10;;;;;;4974731;28;20180;-61
2022/11/08 01:05:45;;;;;;;4.20;3.80;;;6.30;85.40;;;;;;5033551;28;20330;-61
2022/11/08 01:08:11;;;;;;;3.30;2.73;;;6.30;85.20;;;;;;5014162;28;20490;-61
2022/11/08 01:10:46;;;;;;;5.07;2.50;;;6.30;84.70;;;;;;5020452;28;20430;-61
2022/11/08 01:13:13;;;;;;;3.83;3.17;;;6.30;85.00;;;;;;5009810;28;20458;-61
2022/11/08 01:15:41;;;;;;;4.23;3.37;;;6.30;84.80;;;;;;5015474;28;20431;-61
2022/11/08 01:18:08;;;;;;;2.90;2.40;;;6.30;84.90;;;;;;5014293;28;20440;-61
2022/11/08 01:20:44;;;;;;;2.73;2.33;;;6.30;84.90;;;;;;5015462;28;20488;-61
2022/11/08 01:23:11;;;;;;;2.93;2.60;;;6.30;85.00;;;;;;5047518;28;20430;-61
2022/11/08 01:25:38;;;;;;;3.20;2.43;;;6.30;84.70;;;;;;5015739;28;20445;-61
2022/11/08 01:28:04;;;;;;;4.57;2.47;;;6.30;84.80;;;;;;5030812;28;20438;-61
2022/11/08 01:30:30;;;;;;;3.43;2.57;;;6.30;85.00;;;;;;5012529;28;20419;-61
2022/11/08 01:32:56;;;;;;;4.83;2.47;;;6.30;85.10;;;;;;5000280;28;20494;-61
2022/11/08 01:35:21;;;;;;;3.20;2.67;;;6.30;84.80;;;;;;5032545;28;20184;-61
2022/11/08 01:37:47;;;;;;;3.60;2.60;;;6.30;84.70;;;;;;5022574;28;20199;-61
2022/11/08 01:40:12;;;;;;;4.10;2.60;;;6.30;84.90;;;;;;5031245;28;20180;-61
2022/11/08 01:42:38;;;;;;;4.73;2.70;;;6.30;84.90;;;;;;5030875;28;20192;-61
2022/11/08 01:45:07;;;;;;;3.27;2.50;;;6.30;85.10;;;;;;5030658;28;20634;-61
2022/11/08 01:47:33;;;;;;;3.33;2.60;;;6.30;84.90;;;;;;5040623;28;20210;-61
2022/11/08 01:50:11;;;;;;;4.10;2.17;;;6.20;84.80;;;;;;5030830;28;20466;-61
2022/11/08 01:52:55;;;;;;;5.90;2.83;;;6.30;84.60;;;;;;5047360;28;20199;-61
2022/11/08 01:55:33;;;;;;;3.70;2.53;;;6.20;84.50;;;;;;5013819;28;20426;-61
2022/11/08 01:58:04;;;;;;;4.27;2.43;;;6.00;84.70;;;;;;5005037;28;20524;-61
2022/11/08 02:00:30;;;;;;;3.97;2.33;;;6.00;85.10;;;;;;5046282;28;20426;-61
2022/11/08 02:02:58;;;;;;;3.83;2.83;;;6.00;85.10;;;;;;5047139;28;20431;-61
2022/11/08 02:05:25;;;;;;;5.23;2.70;;;6.00;85.00;;;;;;5046837;28;20180;-61
2022/11/08 02:08:02;;;;;;;6.27;2.67;;;6.00;85.10;;;;;;5008025;28;20431;-61
2022/11/08 02:10:37;;;;;;;3.57;2.30;;;6.00;85.20;;;;;;5042646;28;20525;-61
2022/11/08 02:13:07;;;;;;;3.53;2.70;;;6.00;85.00;;;;;;5047277;28;21030;-61
2022/11/08 02:15:33;;;;;;;5.43;3.17;;;6.00;84.90;;;;;;5011346;28;20436;-61
2022/11/08 02:17:59;;;;;;;4.07;2.70;;;6.00;84.70;;;;;;5005478;28;20426;-61
2022/11/08 02:20:26;;;;;;;5.87;2.63;;;6.00;84.60;;;;;;4999482;28;20192;-61
2022/11/08 02:23:00;;;;;;;6.03;2.60;;;5.90;84.50;;;;;;5013973;28;20434;-61
2022/11/08 02:25:26;;;;;;;2.97;2.67;;;5.90;85.00;;;;;;5034731;28;20533;-61
2022/11/08 02:27:52;;;;;;;4.27;2.50;;;5.90;84.90;;;;;;5024561;28;20533;-61
2022/11/08 02:30:18;;;;;;;4.50;2.60;;;5.90;84.80;;;;;;5029923;28;20199;-61
2022/11/08 02:32:43;;;;;;;3.80;2.30;;;5.90;85.20;;;;;;5013124;28;20245;-61
2022/11/08 02:35:16;;;;;;;4.37;3.07;;;5.90;85.20;;;;;;5018214;28;20190;-61
2022/11/08 02:37:42;;;;;;;4.97;2.80;;;5.90;85.10;;;;;;5017236;28;20183;-61
2022/11/08 02:40:08;;;;;;;2.80;2.43;;;5.90;85.10;;;;;;5003865;28;20491;-61
2022/11/08 02:42:37;;;;;;;4.13;2.93;;;5.90;84.90;;;;;;5029987;28;20433;-61
2022/11/08 02:45:05;;;;;;;5.67;3.20;;;5.90;84.80;;;;;;5014427;28;20446;-61
2022/11/08 02:47:30;;;;;;;7.67;2.80;;;5.90;84.70;;;;;;4999625;28;20439;-61
2022/11/08 02:49:56;;;;;;;3.40;2.30;;;5.90;84.60;;;;;;5012882;28;20795;-61
2022/11/08 02:52:22;;;;;;;2.60;2.40;;;5.90;84.60;;;;;;5011111;28;20238;-61
2022/11/08 02:54:48;;;;;;;3.33;2.80;;;5.80;84.70;;;;;;5030045;28;20545;-61
2022/11/08 02:57:13;;;;;;;3.03;2.67;;;5.80;85.00;;;;;;5006529;28;20232;-61
2022/11/08 02:59:39;;;;;;;7.03;2.90;;;5.80;84.70;;;;;;5013356;28;20246;-61
2022/11/08 03:02:05;;;;;;;5.37;2.80;;;5.70;84.60;;;;;;5008670;28;20191;-61
2022/11/08 03:04:30;;;;;;;3.77;2.70;;;5.70;84.80;;;;;;5031511;28;20269;-61
2022/11/08 03:06:56;;;;;;;3.77;2.80;;;5.70;85.00;;;;;;4992439;28;20189;-61
2022/11/08 03:09:22;;;;;;;4.63;2.90;;;5.70;85.10;;;;;;5031462;28;20548;-61
2022/11/08 03:11:47;;;;;;;5.43;3.00;;;5.70;84.90;;;;;;5000525;28;20188;-61
2022/11/08 03:14:13;;;;;;;5.17;3.40;;;5.70;84.70;;;;;;5013708;28;20211;-61
2022/11/08 03:16:38;;;;;;;4.90;3.07;;;5.60;84.90;;;;;;4999967;28;20191;-61
2022/11/08 03:19:04;;;;;;;3.40;2.77;;;5.60;85.00;;;;;;5014409;28;20187;-61
2022/11/08 03:21:30;;;;;;;3.37;2.80;;;5.60;84.80;;;;;;5029517;28;20188;-61
2022/11/08 03:23:56;;;;;;;5.67;2.80;;;5.60;84.50;;;;;;5041478;28;20184;-61
2022/11/08 03:26:21;;;;;;;5.37;2.77;;;5.60;84.30;;;;;;5030201;28;20192;-61
2022/11/08 03:28:47;;;;;;;4.83;3.23;;;5.60;84.40;;;;;;5017528;28;20184;-61
2022/11/08 03:31:13;;;;;;;4.17;3.00;;;5.50;84.20;;;;;;4998826;28;20184;-61
2022/11/08 03:33:38;;;;;;;5.17;2.67;;;5.50;84.50;;;;;;4992837;28;20274;-61
2022/11/08 03:36:04;;;;;;;3.30;2.40;;;5.50;84.40;;;;;;5033492;28;20191;-61
2022/11/08 03:38:30;;;;;;;4.47;3.00;;;5.60;84.90;;;;;;5024638;28;20214;-61
2022/11/08 03:40:55;;;;;;;4.13;2.83;;;5.60;85.00;;;;;;5016510;28;20183;-61
2022/11/08 03:43:21;;;;;;;3.60;2.60;;;5.60;85.00;;;;;;5032143;28;20210;-61
2022/11/08 03:45:47;;;;;;;4.53;3.00;;;5.60;84.70;;;;;;5033525;28;20274;-61
2022/11/08 03:48:13;;;;;;;4.27;3.13;;;5.60;84.90;;;;;;5033349;28;20187;-61
2022/11/08 03:50:38;;;;;;;4.90;3.20;;;5.70;84.90;;;;;;4988229;28;20204;-61
2022/11/08 03:53:04;;;;;;;2.83;2.57;;;5.70;84.70;;;;;;5033365;28;20215;-61
2022/11/08 03:55:30;;;;;;;4.80;2.73;;;5.60;84.60;;;;;;5032522;28;20203;-60
2022/11/08 03:57:56;;;;;;;4.00;2.30;;;5.60;84.60;;;;;;5003490;28;20268;-61
2022/11/08 04:00:25;;;;;;;6.73;3.00;;;5.60;84.40;;;;;;5006489;28;20517;-61
2022/11/08 04:02:51;;;;;;;4.50;2.70;;;5.60;84.10;;;;;;5021148;28;20187;-61
2022/11/08 04:05:17;;;;;;;3.73;2.43;;;5.60;84.20;;;;;;5009796;28;20521;-61
2022/11/08 04:07:44;;;;;;;5.30;2.70;;;5.60;84.40;;;;;;5015771;28;20449;-61
2022/11/08 04:10:11;;;;;;;4.97;2.80;;;5.50;84.30;;;;;;5019388;28;20485;-61
2022/11/08 04:15:28;;;;;;;4.17;3.37;;;5.30;84.90;;;;;;5017129;28;20425;-61
2022/11/08 04:23:28;;;;;;;3.40;2.83;;;5.40;84.50;;;;;;5008159;28;20444;-61
2022/11/08 04:25:59;;;;;;;7.10;2.93;;;5.40;84.60;;;;;;5047706;28;20776;-61
2022/11/08 04:28:27;;;;;;;6.30;2.87;;;5.40;84.70;;;;;;5019431;28;20433;-61
2022/11/08 04:30:55;;;;;;;5.50;3.50;;;5.40;84.50;;;;;;5014939;28;20437;-61
2022/11/08 04:33:21;;;;;;;3.93;2.80;;;5.40;84.60;;;;;;5047986;28;20473;-61
2022/11/08 04:35:48;;;;;;;5.90;3.00;;;5.20;84.80;;;;;;5000061;28;20423;-61
2022/11/08 04:38:13;;;;;;;5.43;3.30;;;5.30;85.10;;;;;;5015500;28;20465;-61
2022/11/08 04:40:39;;;;;;;4.37;3.10;;;5.30;85.10;;;;;;4996728;28;20446;-61
2022/11/08 04:43:05;;;;;;;5.37;2.93;;;5.30;84.90;;;;;;5014498;28;20195;-61
2022/11/08 04:45:30;;;;;;;4.03;3.07;;;5.40;84.70;;;;;;5005416;28;20194;-61
2022/11/08 04:47:56;;;;;;;4.50;2.97;;;5.40;84.50;;;;;;5033721;28;20195;-61
2022/11/08 04:50:21;;;;;;;5.77;2.93;;;5.40;84.40;;;;;;5000315;28;20187;-61
2022/11/08 04:52:51;;;;;;;7.03;3.73;;;5.30;84.60;;;;;;5041201;28;20214;-61
2022/11/08 04:55:18;;;;;;;4.87;3.20;;;5.30;85.50;;;;;;5041091;28;20188;-61
2022/11/08 04:57:44;;;;;;;4.50;3.77;;;5.10;85.40;;;;;;5026771;28;20489;-62
2022/11/08 05:00:10;;;;;;;3.90;3.33;;;5.10;85.50;;;;;;5037913;28;20429;-62
2022/11/08 05:02:36;;;;;;;4.63;3.43;;;5.20;85.20;;;;;;5046190;28;20664;-62
2022/11/08 05:05:01;;;;;;;4.97;4.03;;;5.30;85.40;;;;;;5001034;28;20445;-61
2022/11/08 05:07:31;;;;;;;6.33;4.00;;;5.30;85.40;;;;;;5022608;28;20235;-61
2022/11/08 05:09:56;;;;;;;3.30;2.77;;;5.30;85.20;;;;;;5006325;28;20191;-61
2022/11/08 05:12:22;;;;;;;5.27;4.13;;;5.30;85.00;;;;;;5031856;28;20443;-61
2022/11/08 05:14:48;;;;;;;8.23;4.23;;;5.40;84.90;;;;;;5000525;28;20183;-62
2022/11/08 05:17:13;;;;;;;6.40;4.13;;;5.40;84.60;;;;;;5026739;28;20246;-61
2022/11/08 05:25:07;;;;;;;7.40;3.80;;;5.30;84.30;;;;;;5016142;28;20442;-62
2022/11/08 05:27:33;;;;;;;4.93;3.63;;;5.30;84.10;;;;;;5019291;28;20460;-61
2022/11/08 05:29:59;;;;;;;6.73;4.50;;;5.30;84.30;;;;;;5015667;28;20184;-61
2022/11/08 05:32:25;;;;;;;5.00;3.40;;;5.30;84.10;;;;;;5020937;28;20480;-61
2022/11/08 05:34:50;;;;;;;5.07;4.53;;;5.30;84.20;;;;;;5032396;28;20237;-61
2022/11/08 05:37:16;;;;;;;6.57;3.87;;;5.20;84.90;;;;;;5021866;28;20658;-61
2022/11/08 05:39:42;;;;;;;6.17;4.47;;;5.20;84.60;;;;;;5030829;28;20191;-61
2022/11/08 05:42:08;;;;;;;5.83;4.20;;;5.10;84.80;;;;;;5024796;28;20275;-60
2022/11/08 05:44:33;;;;;;;6.70;3.80;;;5.10;85.00;;;;;;5028845;28;20203;-60
2022/11/08 05:46:59;;;;;;;5.77;3.77;;;5.20;84.70;;;;;;5026293;28;20192;-60
2022/11/08 05:49:25;;;;;;;6.60;4.13;;;5.20;84.30;;;;;;5016347;28;20196;-60
2022/11/08 05:51:50;;;;;;;9.43;3.90;;;5.20;84.30;;;;;;5011742;28;20302;-60
2022/11/08 05:54:16;;;;;;;6.27;3.73;;;5.20;84.30;;;;;;5031197;28;20204;-60
2022/11/08 05:56:42;;;;;;;5.27;3.73;;;5.20;84.20;;;;;;5030126;28;20238;-60
2022/11/08 05:59:07;;;;;;;5.70;3.67;;;5.20;84.20;;;;;;5032292;28;20207;-60
2022/11/08 06:01:33;;;;;;;8.47;4.27;;;5.20;84.20;;;;;;5031212;28;20195;-60
2022/11/08 06:03:59;;;;;;;5.03;4.03;;;5.30;84.10;;;;;;5030775;28;20252;-60
2022/11/08 06:06:25;;;;;;;6.57;3.70;;;5.10;83.80;;;;;;5042179;28;20293;-60
2022/11/08 06:08:51;;;;;;;4.83;3.73;;;5.00;84.20;;;;;;5041331;28;20199;-60
2022/11/08 06:11:23;;;;;;;5.87;4.00;;;5.10;84.60;;;;;;5047251;28;20434;-60
2022/11/08 06:13:49;;;;;;;4.90;3.60;;;5.10;84.30;;;;;;5016848;28;20219;-60
2022/11/08 06:16:16;;;;;;;4.93;3.77;;;5.10;84.20;;;;;;5026889;28;20485;-60
2022/11/08 06:18:43;;;;;;;7.47;3.73;;;5.10;84.00;;;;;;5007377;28;20488;-60
2022/11/08 06:21:14;;;;;;;5.33;3.80;;;5.10;84.00;;;;;;4994002;28;20435;-60
2022/11/08 06:23:40;;;;;;;5.67;4.40;;;5.10;84.20;;;;;;5052639;28;20434;-60
2022/11/08 06:26:06;;;;;;;5.60;3.77;;;5.10;84.10;;;;;;4994449;28;20455;-60
2022/11/08 06:28:32;;;;;;;5.10;4.27;;;5.10;84.00;;;;;;5031863;28;20439;-60
2022/11/08 06:30:59;;;;;;;7.17;3.87;;;4.80;84.00;;;;;;4994983;28;20461;-60
2022/11/08 06:33:24;;;;;;;5.17;3.90;;;4.90;84.80;;;;;;4997049;28;20249;-60
2022/11/08 06:35:50;;;;;;;6.37;4.00;;;5.00;84.90;;;;;;5029197;28;20482;-60
2022/11/08 06:38:16;;;;;;;6.47;3.90;;;5.10;85.30;;;;;;5030607;28;20191;-60
2022/11/08 06:40:43;;;;;;;5.53;4.00;;;5.10;85.20;;;;;;5014832;28;20570;-60
2022/11/08 06:43:10;;;;;;;6.50;4.00;;;5.20;85.00;;;;;;5003301;28;20474;-60
2022/11/08 06:45:37;;;;;;;7.53;3.97;;;5.30;84.70;;;;;;4997646;28;20453;-60
2022/11/08 06:48:04;;;;;;;6.67;4.17;;;5.30;85.40;;;;;;5040930;28;20446;-60
2022/11/08 06:50:31;;;;;;;6.37;4.27;;;5.30;85.10;;;;;;5021889;28;20488;-60
2022/11/08 06:52:59;;;;;;;6.73;4.40;;;5.30;85.00;;;;;;5007665;28;20470;-60
2022/11/08 06:55:24;;;;;;;5.63;3.77;;;5.40;84.80;;;;;;5028175;28;20438;-60
2022/11/08 06:57:51;;;;;;;4.77;3.60;;;5.40;84.80;;;;;;5028970;28;20569;-60
2022/11/08 07:00:17;;;;;;;8.97;4.23;;;5.40;84.70;;;;;;5011741;28;20187;-60
2022/11/08 07:02:43;;;;;;;6.47;4.27;;;5.50;84.70;;;;;;5009681;28;20450;-60
2022/11/08 07:05:10;;;;;;;7.50;4.40;;;5.60;85.10;;;;;;5026842;28;20442;-60
2022/11/08 07:07:36;;;;;;;6.00;4.27;;;5.60;85.00;;;;;;5032979;28;20473;-60
2022/11/08 07:10:03;;;;;;;7.10;4.47;;;5.60;84.90;;;;;;4990221;28;20486;-60
2022/11/08 07:12:28;;;;;;;7.23;4.30;;;5.60;84.90;;;;;;5026059;28;20445;-60
2022/11/08 07:14:54;;;;;;;7.10;4.20;;;5.60;85.00;;;;;;5002373;28;20447;-60
2022/11/08 07:17:19;;;;;;;5.30;4.27;;;5.60;85.10;;;;;;5038546;28;20199;-60
2022/11/08 07:19:45;;;;;;;6.90;4.10;;;5.70;85.10;;;;;;5009098;28;20242;-60
2022/11/08 07:22:11;;;;;;;6.20;3.70;;;5.70;85.20;;;;;;5007531;28;20259;-60
2022/11/08 07:24:36;;;;;;;5.63;4.10;;;5.80;85.30;;;;;;5024406;28;20210;-60
2022/11/08 07:27:02;;;;;;;6.20;4.33;;;5.80;85.40;;;;;;5021730;28;20230;-60
2022/11/08 07:29:28;;;;;;;5.73;4.17;;;5.90;85.60;;;;;;5008771;28;20292;-60
2022/11/08 07:31:53;;;;;;;7.40;5.47;;;6.00;85.60;;;;;;5027658;28;20235;-60
2022/11/08 07:34:19;;;;;;;9.07;5.77;;;6.00;85.90;;;;;;5007941;28;20270;-60
2022/11/08 07:36:45;;;;;;;10.67;6.17;;;6.00;85.90;;;;;;5026206;28;20184;-60
2022/11/08 07:39:11;;;;;;;12.17;6.23;;;6.10;85.90;;;;;;5025480;28;20263;-60
2022/11/08 07:41:37;;;;;;;11.00;5.93;;;6.20;86.00;;;;;;4992756;28;20544;-60
2022/11/08 07:44:03;;;;;;;9.13;5.63;;;6.20;86.20;;;;;;5032506;28;20525;-60
2022/11/08 07:46:29;;;;;;;7.83;5.27;;;6.30;86.40;;;;;;5027187;28;20183;-60
2022/11/08 07:48:54;;;;;;;6.87;4.83;;;6.30;86.40;;;;;;5026735;28;20481;-60
2022/11/08 07:51:20;;;;;;;7.27;4.87;;;6.40;86.40;;;;;;5010644;28;20199;-60
2022/11/08 07:53:45;;;;;;;7.73;5.03;;;6.40;86.40;;;;;;5025422;28;20321;-60
2022/11/08 07:56:11;;;;;;;7.10;4.90;;;6.50;86.20;;;;;;5026745;28;20236;-60
2022/11/08 07:58:37;;;;;;;7.97;4.90;;;6.60;86.00;;;;;;5009364;28;20193;-60
2022/11/08 08:01:04;;;;;;;7.03;5.00;;;6.60;86.00;;;;;;4995147;28;20201;-60
2022/11/08 08:03:30;;;;;;;9.83;5.30;;;6.60;85.90;;;;;;5010841;28;20222;-60
2022/11/08 08:05:56;;;;;;;6.23;4.47;;;6.70;86.00;;;;;;5038970;28;20461;-60
2022/11/08 08:08:21;;;;;;;6.63;4.53;;;6.70;85.80;;;;;;5026691;28;20196;-60
2022/11/08 08:10:47;;;;;;;7.20;4.90;;;6.70;85.80;;;;;;4995120;28;20241;-60
2022/11/08 08:13:13;;;;;;;6.23;4.77;;;6.80;85.20;;;;;;5025577;28;20211;-60
2022/11/08 08:15:39;;;;;;;8.00;5.30;;;6.80;85.40;;;;;;5028028;28;20191;-60
2022/11/08 08:18:06;;;;;;;8.17;4.87;;;6.80;85.60;;;;;;4998639;28;20238;-60
2022/11/08 08:20:33;;;;;;;8.00;4.63;;;6.80;85.70;;;;;;5030368;28;20250;-60
2022/11/08 08:22:59;;;;;;;5.90;4.10;;;6.90;85.60;;;;;;5026069;28;20427;-60
2022/11/08 08:25:27;;;;;;;7.57;5.20;;;6.90;85.70;;;;;;5047635;28;20449;-60
2022/11/08 08:27:55;;;;;;;6.13;4.63;;;6.90;85.40;;;;;;5050938;28;20432;-60
2022/11/08 08:30:22;;;;;;;7.60;4.93;;;7.00;85.40;;;;;;5044806;28;20504;-60
2022/11/08 08:32:48;;;;;;;9.60;5.47;;;7.10;85.40;;;;;;5012905;28;20470;-59
2022/11/08 08:35:14;;;;;;;7.30;4.63;;;7.10;85.40;;;;;;5044678;28;20532;-59
2022/11/08 08:37:40;;;;;;;7.27;4.93;;;7.10;85.50;;;;;;5016059;28;20466;-59
2022/11/08 08:40:07;;;;;;;8.43;5.87;;;7.20;85.50;;;;;;5024172;28;20485;-60
2022/11/08 08:42:33;;;;;;;10.27;5.43;;;7.20;85.40;;;;;;5030016;28;20222;-59
2022/11/08 08:45:00;;;;;;;7.50;5.57;;;7.30;85.40;;;;;;5030831;28;20487;-59
2022/11/08 08:47:26;;;;;;;9.83;6.17;;;7.30;85.40;;;;;;5029186;28;20446;-60
2022/11/08 08:49:52;;;;;;;7.20;4.97;;;7.40;85.20;;;;;;5046259;28;20533;-60
2022/11/08 08:52:17;;;;;;;8.40;5.17;;;7.40;85.20;;;;;;5022338;28;20525;-60
2022/11/08 08:54:43;;;;;;;6.77;4.60;;;7.50;85.20;;;;;;5017380;28;20246;-60
2022/11/08 08:57:09;;;;;;;8.50;4.93;;;7.50;85.30;;;;;;5030007;28;20243;-60
2022/11/08 08:59:34;;;;;;;8.33;5.33;;;7.60;85.20;;;;;;5029000;28;20278;-60
2022/11/08 09:02:00;;;;;;;7.50;4.90;;;7.60;85.30;;;;;;4995984;28;20279;-59
2022/11/08 09:04:29;;;;;;;7.83;5.50;;;7.70;85.30;;;;;;4991665;28;20246;-60
2022/11/08 09:06:54;;;;;;;7.03;4.70;;;7.70;85.30;;;;;;5029960;28;20200;-60
2022/11/08 09:09:21;;;;;;;7.57;4.57;;;7.80;85.30;;;;;;5030493;28;20485;-60
2022/11/08 09:11:47;;;;;;;10.67;4.60;;;7.90;84.50;;;;;;5012749;28;20196;-59
2022/11/08 09:14:13;;;;;;;7.97;4.67;;;8.00;84.50;;;;;;5019606;28;20477;-60
2022/11/08 09:16:38;;;;;;;7.33;5.17;;;8.10;83.20;;;;;;5005618;28;20443;-60
2022/11/08 09:19:04;;;;;;;6.83;4.43;;;8.20;83.30;;;;;;5029283;28;20195;-60
2022/11/08 09:21:30;;;;;;;7.27;4.70;;;8.30;83.60;;;;;;4993607;28;20223;-60
2022/11/08 09:23:55;;;;;;;6.60;4.47;;;8.30;83.50;;;;;;5039644;28;20191;-60
2022/11/08 09:26:21;;;;;;;8.77;6.73;;;8.30;83.90;;;;;;5024528;28;20192;-60
2022/11/08 09:28:47;;;;;;;14.80;7.33;;;8.40;83.00;;;;;;5017606;28;20191;-60
2022/11/08 09:31:12;;;;;;;9.90;7.83;;;8.60;81.50;;;;;;5028304;28;20222;-60
2022/11/08 09:33:39;;;;;;;11.10;7.27;;;8.70;81.50;;;;;;4996459;28;20605;-59
2022/11/08 09:36:07;;;;;;;10.70;7.27;;;8.80;80.70;;;;;;5012452;28;20182;-60
2022/11/08 09:38:33;;;;;;;9.03;5.70;;;8.90;81.00;;;;;;5038093;28;20507;-60
2022/11/08 09:41:01;;;;;;;15.07;6.90;;;8.80;81.30;;;;;;5028700;28;20462;-60
2022/11/08 09:43:58;;;;;;;10.23;6.47;;;8.90;80.50;;;;;;5044879;28;20184;-60
2022/11/08 09:46:45;;;;;;;8.23;5.30;;;9.10;80.30;;;;;;5016872;28;20479;-60
2022/11/08 09:49:17;;;;;;;9.30;6.80;;;9.00;80.80;;;;;;5035316;28;20426;-60
2022/11/08 09:51:43;;;;;;;11.70;6.87;;;9.10;81.10;;;;;;5012287;28;20419;-60
2022/11/08 09:54:20;;;;;;;10.33;6.20;;;9.20;79.90;;;;;;5027623;28;20476;-60
2022/11/08 09:56:46;;;;;;;13.67;6.67;;;9.30;79.30;;;;;;5041990;28;20230;-60
2022/11/08 09:59:41;;;;;;;11.63;7.17;;;9.50;78.90;;;;;;5026264;28;20450;-60
2022/11/08 10:02:18;;;;;;;12.77;7.10;;;9.60;79.90;;;;;;5003473;28;20441;-60
2022/11/08 10:04:58;;;;;;;11.27;7.63;;;9.60;79.60;;;;;;5012057;28;20429;-60
2022/11/08 10:07:54;;;;;;;11.73;7.57;;;9.70;79.80;;;;;;5044611;28;20502;-60
2022/11/08 10:10:30;;;;;;;10.03;7.87;;;9.80;78.50;;;;;;5003028;28;20418;-60
2022/11/08 10:13:01;;;;;;;15.50;8.73;;;9.80;78.70;;;;;;5011601;28;20470;-59
2022/11/08 10:15:49;;;;;;;15.50;8.27;;;10.00;78.10;;;;;;5000955;28;20424;-60
2022/11/08 10:18:38;;;;;;;15.57;8.63;;;10.00;79.20;;;;;;5011385;28;20188;-60
2022/11/08 10:21:21;;;;;;;14.33;8.23;;;10.10;79.50;;;;;;5034147;28;20446;-60
2022/11/08 10:23:52;;;;;;;11.90;7.77;;;10.20;79.00;;;;;;5005938;28;20477;-60
2022/11/08 10:26:20;;;;;;;12.07;7.93;;;10.30;77.90;;;;;;5011976;28;20477;-60
2022/11/08 10:28:53;;;;;;;14.57;7.20;;;10.30;77.80;;;;;;5013445;28;20521;-60
2022/11/08 10:31:20;;;;;;;11.60;7.37;;;10.30;78.10;;;;;;5045004;28;20195;-60
2022/11/08 10:33:51;;;;;;;12.93;8.63;;;10.40;77.70;;;;;;5025402;28;20466;-60
2022/11/08 10:36:26;;;;;;;11.93;7.90;;;10.50;78.60;;;;;;5012028;28;20454;-60
2022/11/08 10:39:11;;;;;;;13.43;7.20;;;10.60;76.70;;;;;;5044598;28;20504;-60
2022/11/08 10:41:39;;;;;;;11.63;7.57;;;10.70;75.80;;;;;;5006108;28;20461;-60
2022/11/08 10:44:18;;;;;;;9.00;6.97;;;10.80;76.40;;;;;;5011525;28;20215;-60
2022/11/08 10:46:54;;;;;;;12.97;8.13;;;10.80;76.30;;;;;;5012391;28;20677;-60
2022/11/08 10:49:53;;;;;;;10.07;6.67;;;11.00;76.30;;;;;;5011768;28;20191;-60
2022/11/08 10:52:37;;;;;;;11.23;7.20;;;11.00;76.50;;;;;;4999706;28;20460;-60
2022/11/08 10:55:06;;;;;;;10.43;6.97;;;11.00;75.50;;;;;;5017149;28;20196;-60
2022/11/08 10:57:41;;;;;;;9.97;6.73;;;11.10;75.00;;;;;;5010902;28;20262;-60
2022/11/08 11:00:33;;;;;;;9.33;6.50;;;11.30;76.90;;;;;;5043589;28;20187;-60
2022/11/08 11:03:00;;;;;;;9.50;6.67;;;11.30;75.80;;;;;;5032850;28;20196;-60
2022/11/08 11:05:53;;;;;;;10.37;6.40;;;11.40;75.60;;;;;;5010181;28;20187;-60
2022/11/08 11:08:21;;;;;;;9.40;6.67;;;11.60;74.60;;;;;;5038014;28;20179;-60
2022/11/08 11:10:48;;;;;;;11.47;7.13;;;11.50;75.30;;;;;;5012465;28;20206;-60
2022/11/08 11:13:18;;;;;;;9.87;5.87;;;11.50;74.50;;;;;;5032276;28;20276;-60
2022/11/08 11:15:46;;;;;;;8.27;6.43;;;11.60;75.10;;;;;;5012547;28;20206;-60
2022/11/08 11:18:36;;;;;;;10.77;5.67;;;11.80;73.90;;;;;;5014630;28;20194;-60
2022/11/08 11:21:10;;;;;;;8.90;6.03;;;11.90;74.90;;;;;;5041045;28;20244;-60
2022/11/08 11:23:45;;;;;;;9.80;5.83;;;12.00;72.80;;;;;;5013548;28;20238;-60
2022/11/08 11:26:18;;;;;;;9.57;5.57;;;12.20;73.90;;;;;;5012425;28;20183;-60
2022/11/08 11:29:13;;;;;;;8.83;6.70;;;12.30;72.60;;;;;;5012631;28;20235;-60
2022/11/08 11:31:42;;;;;;;11.30;6.17;;;12.50;71.60;;;;;;5010360;28;20190;-60
2022/11/08 11:34:17;;;;;;;8.27;5.83;;;12.60;71.20;;;;;;5010435;28;20200;-60
2022/11/08 11:37:09;;;;;;;9.33;5.40;;;12.70;72.50;;;;;;5009889;28;20183;-60
2022/11/08 11:39:53;;;;;;;6.47;5.50;;;12.70;72.60;;;;;;5019510;28;20184;-60
2022/11/08 11:42:26;;;;;;;9.53;5.83;;;12.80;71.80;;;;;;5055092;28;20190;-60
2022/11/08 11:45:10;;;;;;;10.33;6.77;;;12.90;70.40;;;;;;5053266;28;20191;-60
2022/11/08 11:47:55;;;;;;;10.10;5.50;;;13.00;70.30;;;;;;5042713;28;20190;-60
2022/11/08 11:50:27;;;;;;;7.87;5.33;;;13.10;71.30;;;;;;5013488;28;20194;-60
2022/11/08 11:52:58;;;;;;;10.37;6.27;;;13.10;71.20;;;;;;5014820;28;20200;-60
2022/11/08 11:55:41;;;;;;;10.27;5.57;;;13.30;70.10;;;;;;5030457;28;20201;-60
2022/11/08 11:58:25;;;;;;;11.73;6.07;;;13.40;69.30;;;;;;5047828;28;20230;-60
2022/11/08 12:01:05;;;;;;;8.37;5.77;;;13.60;69.40;;;;;;5061818;28;20183;-60
2022/11/08 12:03:43;;;;;;;8.00;5.77;;;13.70;68.00;;;;;;5006066;28;20180;-60
2022/11/08 12:06:50;;;;;;;7.60;5.03;;;13.70;68.10;;;;;;5019952;28;20183;-60
2022/11/08 12:09:41;;;;;;;8.60;5.47;;;13.70;69.30;;;;;;5034631;28;20286;-60
2022/11/08 12:12:45;;;;;;;9.33;5.60;;;13.80;68.60;;;;;;5037543;28;20658;-60
2022/11/08 12:15:40;;;;;;;7.53;5.07;;;13.80;67.70;;;;;;5019806;28;20183;-60
2022/11/08 12:18:47;;;;;;;9.13;5.83;;;13.80;68.40;;;;;;5019923;28;20286;-60
2022/11/08 12:21:37;;;;;;;9.80;5.57;;;14.00;68.50;;;;;;5020342;28;20196;-60
2022/11/08 12:24:39;;;;;;;6.67;4.93;;;14.00;66.70;;;;;;5044719;28;20183;-61
2022/11/08 12:27:30;;;;;;;8.77;4.87;;;14.30;66.80;;;;;;5002234;28;20270;-61
2022/11/08 12:29:59;;;;;;;7.57;4.53;;;14.30;66.60;;;;;;5017538;28;20231;-61
2022/11/08 12:32:45;;;;;;;6.83;5.43;;;14.40;66.00;;;;;;5048111;28;20195;-60
2022/11/08 12:35:23;;;;;;;12.30;5.77;;;14.40;65.40;;;;;;5023746;28;20195;-60
2022/11/08 12:37:55;;;;;;;7.63;5.00;;;14.50;66.20;;;;;;5017533;28;20184;-60
2022/11/08 12:41:02;;;;;;;7.57;4.83;;;14.60;66.50;;;;;;5056363;28;20180;-61
2022/11/08 12:43:37;;;;;;;9.00;4.93;;;14.70;67.30;;;;;;5006177;28;20215;-60
2022/11/08 12:46:05;;;;;;;9.27;5.27;;;14.90;64.60;;;;;;5009807;28;20220;-60
2022/11/08 12:48:40;;;;;;;10.70;5.47;;;15.00;64.60;;;;;;5048509;28;20188;-61
2022/11/08 12:51:17;;;;;;;7.40;4.50;;;15.10;63.70;;;;;;5049371;28;20213;-61
2022/11/08 12:53:47;;;;;;;7.97;4.90;;;15.20;64.20;;;;;;5038621;28;20215;-60
2022/11/08 12:56:28;;;;;;;7.83;5.27;;;15.30;64.30;;;;;;5015253;28;20230;-59
2022/11/08 12:58:55;;;;;;;6.00;4.53;;;15.30;62.20;;;;;;5012360;28;20178;-59
2022/11/08 13:01:22;;;;;;;7.17;4.60;;;15.30;63.50;;;;;;5021038;28;20176;-59
2022/11/08 13:03:50;;;;;;;6.13;4.37;;;15.30;61.40;;;;;;5019982;28;20279;-59
2022/11/08 13:06:34;;;;;;;6.10;4.20;;;15.30;62.10;;;;;;5013733;28;20204;-60
2022/11/08 13:09:14;;;;;;;7.53;4.40;;;15.40;62.40;;;;;;5017760;28;20271;-61
2022/11/08 13:11:44;;;;;;;6.70;4.37;;;15.30;61.30;;;;;;5015485;28;20273;-61
2022/11/08 13:14:14;;;;;;;8.43;4.67;;;15.30;63.10;;;;;;5016038;28;20217;-61
2022/11/08 13:17:04;;;;;;;7.40;4.60;;;15.30;64.30;;;;;;5017003;28;20180;-61
2022/11/08 13:19:50;;;;;;;5.03;4.07;;;15.40;64.70;;;;;;5049047;28;20194;-61
2022/11/08 13:22:28;;;;;;;5.90;3.40;;;15.40;62.20;;;;;;5015375;28;20218;-61
2022/11/08 13:24:58;;;;;;;4.53;3.87;;;15.40;61.30;;;;;;5012970;28;20196;-61
2022/11/08 13:27:37;;;;;;;4.83;3.50;;;15.40;62.10;;;;;;5042735;28;20286;-61
2022/11/08 13:30:14;;;;;;;5.90;3.80;;;15.40;59.50;;;;;;5013418;28;20240;-61
2022/11/08 13:32:47;;;;;;;4.63;3.40;;;15.30;60.10;;;;;;5044913;28;20187;-61